sensor_id;sensor_type;location;lat;lon;timestamp;P1;durP1;ratioP1;P2;durP2;ratioP2
55350;SDS011;62194;49.480;10.986;2023-06-26T00:00:05;8.33;;;7.43;;
55350;SDS011;62194;49.480;10.986;2023-06-26T00:00:13;8.55;;;7.53;;
55350;SDS011;62194;49.480;10.986;2023-06-26T00:00:20;8.23;;;7.31;;
55350;SDS011;62194;49.480;10.986;2023-06-26T00:00:25;8.07;;;7.22;;
55350;SDS011;62194;49.480;10.986;2023-06-26T00:00:30;8.40;;;7.37;;
55350;SDS011;62194;49.480;10.986;2023-06-26T00:00:37;8.13;;;7.25;;
55350;SDS011;62194;49.480;10.986;2023-06-26T00:00:42;8.30;;;7.38;;
55350;SDS011;62194;49.480;10.986;2023-06-26T00:00:47;8.77;;;7.60;;
55350;SDS011;62194;49.480;10.986;2023-06-26T00:00:53;8.80;;;7.68;;
55350;SDS011;62194;49.480;10.986;2023-06-26T00:00:58;9.00;;;7.63;;
55350;SDS011;62194;49.480;10.986;2023-06-26T00:01:03;8.67;;;7.57;;
55350;SDS011;62194;49.480;10.986;2023-06-26T00:01:10;8.68;;;7.34;;
55350;SDS011;62194;49.480;10.986;2023-06-26T00:01:15;8.17;;;7.13;;
55350;SDS011;62194;49.480;10.986;2023-06-26T00:01:20;8.00;;;7.13;;
55350;SDS011;62194;49.480;10.986;2023-06-26T00:01:26;7.95;;;7.13;;
55350;SDS011;62194;49.480;10.986;2023-06-26T00:01:34;8.97;;;7.45;;
55350;SDS011;62194;49.480;10.986;2023-06-26T00:01:40;8.98;;;7.65;;
55350;SDS011;62194;49.480;10.986;2023-06-26T00:01:45;9.10;;;7.80;;
55350;SDS011;62194;49.480;10.986;2023-06-26T00:01:51;9.47;;;7.83;;
55350;SDS011;62194;49.480;10.986;2023-06-26T00:01:56;9.50;;;7.88;;
55350;SDS011;62194;49.480;10.986;2023-06-26T00:02:10;9.00;;;7.61;;
55350;SDS011;62194;49.480;10.986;2023-06-26T00:02:16;9.47;;;7.53;;
55350;SDS011;62194;49.480;10.986;2023-06-26T00:02:21;9.10;;;7.50;;
55350;SDS011;62194;49.480;10.986;2023-06-26T00:02:29;8.90;;;7.50;;
55350;SDS011;62194;49.480;10.986;2023-06-26T00:02:37;8.49;;;7.49;;
55350;SDS011;62194;49.480;10.986;2023-06-26T00:02:43;8.10;;;7.30;;
55350;SDS011;62194;49.480;10.986;2023-06-26T00:02:48;8.27;;;7.10;;
55350;SDS011;62194;49.480;10.986;2023-06-26T00:02:53;8.67;;;7.00;;
55350;SDS011;62194;49.480;10.986;2023-06-26T00:02:59;8.77;;;7.10;;
55350;SDS011;62194;49.480;10.986;2023-06-26T00:03:05;8.82;;;7.25;;
55350;SDS011;62194;49.480;10.986;2023-06-26T00:03:10;8.90;;;7.33;;
55350;SDS011;62194;49.480;10.986;2023-06-26T00:03:19;8.83;;;7.63;;
55350;SDS011;62194;49.480;10.986;2023-06-26T00:03:24;9.00;;;7.77;;
55350;SDS011;62194;49.480;10.986;2023-06-26T00:03:29;8.73;;;7.60;;
55350;SDS011;62194;49.480;10.986;2023-06-26T00:03:35;8.70;;;7.65;;
55350;SDS011;62194;49.480;10.986;2023-06-26T00:03:40;9.27;;;7.73;;
55350;SDS011;62194;49.480;10.986;2023-06-26T00:03:45;9.73;;;7.80;;
55350;SDS011;62194;49.480;10.986;2023-06-26T00:03:50;9.48;;;7.72;;
55350;SDS011;62194;49.480;10.986;2023-06-26T00:03:56;9.53;;;7.80;;
55350;SDS011;62194;49.480;10.986;2023-06-26T00:04:04;9.88;;;7.78;;
55350;SDS011;62194;49.480;10.986;2023-06-26T00:04:10;9.27;;;7.45;;
55350;SDS011;62194;49.480;10.986;2023-06-26T00:04:19;8.53;;;7.50;;
55350;SDS011;62194;49.480;10.986;2023-06-26T00:04:24;8.33;;;7.30;;
55350;SDS011;62194;49.480;10.986;2023-06-26T00:04:29;8.77;;;7.20;;
55350;SDS011;62194;49.480;10.986;2023-06-26T00:04:35;8.75;;;7.18;;
55350;SDS011;62194;49.480;10.986;2023-06-26T00:04:42;8.82;;;7.20;;
55350;SDS011;62194;49.480;10.986;2023-06-26T00:04:48;8.77;;;7.18;;
55350;SDS011;62194;49.480;10.986;2023-06-26T00:04:56;8.98;;;7.22;;
55350;SDS011;62194;49.480;10.986;2023-06-26T00:05:01;8.52;;;7.44;;
55350;SDS011;62194;49.480;10.986;2023-06-26T00:05:09;9.50;;;7.60;;
55350;SDS011;62194;49.480;10.986;2023-06-26T00:05:14;9.95;;;7.63;;
55350;SDS011;62194;49.480;10.986;2023-06-26T00:05:20;10.50;;;7.88;;
55350;SDS011;62194;49.480;10.986;2023-06-26T00:05:26;10.95;;;7.80;;
55350;SDS011;62194;49.480;10.986;2023-06-26T00:05:32;10.73;;;7.75;;
55350;SDS011;62194;49.480;10.986;2023-06-26T00:05:39;10.75;;;8.00;;
55350;SDS011;62194;49.480;10.986;2023-06-26T00:05:44;10.47;;;8.10;;
55350;SDS011;62194;49.480;10.986;2023-06-26T00:05:49;9.82;;;7.80;;
55350;SDS011;62194;49.480;10.986;2023-06-26T00:05:55;9.05;;;7.88;;
55350;SDS011;62194;49.480;10.986;2023-06-26T00:06:05;9.21;;;7.87;;
55350;SDS011;62194;49.480;10.986;2023-06-26T00:06:10;8.50;;;7.60;;
55350;SDS011;62194;49.480;10.986;2023-06-26T00:06:15;8.55;;;7.65;;
55350;SDS011;62194;49.480;10.986;2023-06-26T00:06:21;8.63;;;7.67;;
55350;SDS011;62194;49.480;10.986;2023-06-26T00:06:29;8.60;;;7.67;;
55350;SDS011;62194;49.480;10.986;2023-06-26T00:06:34;8.73;;;7.82;;
55350;SDS011;62194;49.480;10.986;2023-06-26T00:06:41;8.85;;;7.95;;
55350;SDS011;62194;49.480;10.986;2023-06-26T00:06:46;8.90;;;8.00;;
55350;SDS011;62194;49.480;10.986;2023-06-26T00:06:51;8.93;;;7.97;;
55350;SDS011;62194;49.480;10.986;2023-06-26T00:06:57;9.10;;;8.20;;
55350;SDS011;62194;49.480;10.986;2023-06-26T00:07:03;8.93;;;8.02;;
55350;SDS011;62194;49.480;10.986;2023-06-26T00:07:09;8.98;;;8.08;;
55350;SDS011;62194;49.480;10.986;2023-06-26T00:07:15;9.23;;;8.15;;
55350;SDS011;62194;49.480;10.986;2023-06-26T00:07:23;9.40;;;8.10;;
55350;SDS011;62194;49.480;10.986;2023-06-26T00:07:29;9.55;;;7.93;;
55350;SDS011;62194;49.480;10.986;2023-06-26T00:07:35;9.93;;;7.57;;
55350;SDS011;62194;49.480;10.986;2023-06-26T00:07:41;9.95;;;7.55;;
55350;SDS011;62194;49.480;10.986;2023-06-26T00:07:49;9.37;;;7.50;;
55350;SDS011;62194;49.480;10.986;2023-06-26T00:07:54;9.73;;;7.57;;
55350;SDS011;62194;49.480;10.986;2023-06-26T00:08:00;9.57;;;7.67;;
55350;SDS011;62194;49.480;10.986;2023-06-26T00:08:05;9.10;;;7.80;;
55350;SDS011;62194;49.480;10.986;2023-06-26T00:08:10;9.03;;;7.73;;
55350;SDS011;62194;49.480;10.986;2023-06-26T00:08:16;8.93;;;7.67;;
55350;SDS011;62194;49.480;10.986;2023-06-26T00:08:21;8.55;;;7.60;;
55350;SDS011;62194;49.480;10.986;2023-06-26T00:08:27;8.47;;;7.63;;
55350;SDS011;62194;49.480;10.986;2023-06-26T00:08:33;8.35;;;7.55;;
55350;SDS011;62194;49.480;10.986;2023-06-26T00:08:38;8.27;;;7.47;;
55350;SDS011;62194;49.480;10.986;2023-06-26T00:08:43;8.30;;;7.40;;
55350;SDS011;62194;49.480;10.986;2023-06-26T00:08:49;8.40;;;7.50;;
55350;SDS011;62194;49.480;10.986;2023-06-26T00:08:54;8.48;;;7.50;;
55350;SDS011;62194;49.480;10.986;2023-06-26T00:09:00;8.57;;;7.30;;
55350;SDS011;62194;49.480;10.986;2023-06-26T00:09:05;9.18;;;7.53;;
55350;SDS011;62194;49.480;10.986;2023-06-26T00:09:11;9.57;;;7.65;;
55350;SDS011;62194;49.480;10.986;2023-06-26T00:09:17;9.20;;;7.60;;
55350;SDS011;62194;49.480;10.986;2023-06-26T00:09:22;9.82;;;7.55;;
55350;SDS011;62194;49.480;10.986;2023-06-26T00:09:27;10.73;;;7.77;;
55350;SDS011;62194;49.480;10.986;2023-06-26T00:09:33;11.15;;;7.80;;
55350;SDS011;62194;49.480;10.986;2023-06-26T00:09:39;11.07;;;7.88;;
55350;SDS011;62194;49.480;10.986;2023-06-26T00:09:44;11.33;;;8.00;;
55350;SDS011;62194;49.480;10.986;2023-06-26T00:09:50;11.33;;;8.00;;
55350;SDS011;62194;49.480;10.986;2023-06-26T00:09:55;11.15;;;8.15;;
55350;SDS011;62194;49.480;10.986;2023-06-26T00:10:06;11.12;;;8.15;;
55350;SDS011;62194;49.480;10.986;2023-06-26T00:10:15;12.15;;;8.05;;
55350;SDS011;62194;49.480;10.986;2023-06-26T00:10:23;11.77;;;8.20;;
55350;SDS011;62194;49.480;10.986;2023-06-26T00:10:28;11.90;;;8.20;;
55350;SDS011;62194;49.480;10.986;2023-06-26T00:10:34;10.40;;;8.30;;
55350;SDS011;62194;49.480;10.986;2023-06-26T00:10:39;10.43;;;8.43;;
55350;SDS011;62194;49.480;10.986;2023-06-26T00:10:44;10.80;;;8.47;;
55350;SDS011;62194;49.480;10.986;2023-06-26T00:10:51;10.30;;;8.27;;
55350;SDS011;62194;49.480;10.986;2023-06-26T00:10:56;10.20;;;8.20;;
55350;SDS011;62194;49.480;10.986;2023-06-26T00:11:02;10.07;;;8.20;;
55350;SDS011;62194;49.480;10.986;2023-06-26T00:11:07;9.48;;;8.02;;
55350;SDS011;62194;49.480;10.986;2023-06-26T00:11:12;8.93;;;7.90;;
55350;SDS011;62194;49.480;10.986;2023-06-26T00:11:18;9.73;;;7.75;;
55350;SDS011;62194;49.480;10.986;2023-06-26T00:11:24;10.03;;;7.70;;
55350;SDS011;62194;49.480;10.986;2023-06-26T00:11:31;10.30;;;7.70;;
55350;SDS011;62194;49.480;10.986;2023-06-26T00:11:38;10.27;;;7.47;;
55350;SDS011;62194;49.480;10.986;2023-06-26T00:11:43;10.23;;;7.43;;
55350;SDS011;62194;49.480;10.986;2023-06-26T00:11:48;9.13;;;7.53;;
55350;SDS011;62194;49.480;10.986;2023-06-26T00:11:54;8.77;;;7.60;;
55350;SDS011;62194;49.480;10.986;2023-06-26T00:11:59;8.57;;;7.60;;
55350;SDS011;62194;49.480;10.986;2023-06-26T00:12:04;8.87;;;7.50;;
55350;SDS011;62194;49.480;10.986;2023-06-26T00:12:10;9.20;;;7.57;;
55350;SDS011;62194;49.480;10.986;2023-06-26T00:12:15;9.40;;;7.63;;
55350;SDS011;62194;49.480;10.986;2023-06-26T00:12:21;9.70;;;7.60;;
55350;SDS011;62194;49.480;10.986;2023-06-26T00:12:26;9.67;;;7.67;;
55350;SDS011;62194;49.480;10.986;2023-06-26T00:12:32;9.18;;;7.53;;
55350;SDS011;62194;49.480;10.986;2023-06-26T00:12:37;8.43;;;7.50;;
55350;SDS011;62194;49.480;10.986;2023-06-26T00:12:42;8.40;;;7.50;;
55350;SDS011;62194;49.480;10.986;2023-06-26T00:12:47;8.40;;;7.50;;
55350;SDS011;62194;49.480;10.986;2023-06-26T00:12:53;8.57;;;7.50;;
55350;SDS011;62194;49.480;10.986;2023-06-26T00:12:59;8.80;;;7.47;;
55350;SDS011;62194;49.480;10.986;2023-06-26T00:13:05;9.15;;;7.55;;
55350;SDS011;62194;49.480;10.986;2023-06-26T00:13:10;9.60;;;7.63;;
55350;SDS011;62194;49.480;10.986;2023-06-26T00:13:17;9.40;;;7.57;;
55350;SDS011;62194;49.480;10.986;2023-06-26T00:13:23;9.27;;;7.70;;
55350;SDS011;62194;49.480;10.986;2023-06-26T00:13:29;9.23;;;7.90;;
55350;SDS011;62194;49.480;10.986;2023-06-26T00:13:34;9.27;;;8.00;;
55350;SDS011;62194;49.480;10.986;2023-06-26T00:13:39;9.00;;;8.00;;
55350;SDS011;62194;49.480;10.986;2023-06-26T00:13:45;9.20;;;8.13;;
55350;SDS011;62194;49.480;10.986;2023-06-26T00:13:50;9.07;;;8.00;;
55350;SDS011;62194;49.480;10.986;2023-06-26T00:13:55;8.97;;;8.00;;
55350;SDS011;62194;49.480;10.986;2023-06-26T00:14:01;9.00;;;7.97;;
55350;SDS011;62194;49.480;10.986;2023-06-26T00:14:06;9.13;;;7.90;;
55350;SDS011;62194;49.480;10.986;2023-06-26T00:14:11;8.93;;;7.83;;
55350;SDS011;62194;49.480;10.986;2023-06-26T00:14:16;8.93;;;7.82;;
55350;SDS011;62194;49.480;10.986;2023-06-26T00:14:24;8.83;;;7.83;;
55350;SDS011;62194;49.480;10.986;2023-06-26T00:14:29;8.77;;;7.73;;
55350;SDS011;62194;49.480;10.986;2023-06-26T00:14:34;8.70;;;7.80;;
55350;SDS011;62194;49.480;10.986;2023-06-26T00:14:39;8.70;;;7.80;;
55350;SDS011;62194;49.480;10.986;2023-06-26T00:14:45;8.97;;;7.90;;
55350;SDS011;62194;49.480;10.986;2023-06-26T00:14:50;9.15;;;8.00;;
55350;SDS011;62194;49.480;10.986;2023-06-26T00:14:56;8.90;;;7.73;;
55350;SDS011;62194;49.480;10.986;2023-06-26T00:15:01;8.93;;;7.90;;
55350;SDS011;62194;49.480;10.986;2023-06-26T00:15:07;9.13;;;7.90;;
55350;SDS011;62194;49.480;10.986;2023-06-26T00:15:13;9.03;;;7.80;;
55350;SDS011;62194;49.480;10.986;2023-06-26T00:15:18;8.90;;;7.70;;
55350;SDS011;62194;49.480;10.986;2023-06-26T00:15:23;9.05;;;7.63;;
55350;SDS011;62194;49.480;10.986;2023-06-26T00:15:29;9.10;;;7.60;;
55350;SDS011;62194;49.480;10.986;2023-06-26T00:15:36;10.17;;;7.83;;
55350;SDS011;62194;49.480;10.986;2023-06-26T00:15:41;9.70;;;7.85;;
55350;SDS011;62194;49.480;10.986;2023-06-26T00:15:47;9.70;;;7.87;;
55350;SDS011;62194;49.480;10.986;2023-06-26T00:15:52;9.50;;;7.93;;
55350;SDS011;62194;49.480;10.986;2023-06-26T00:15:57;9.63;;;8.10;;
55350;SDS011;62194;49.480;10.986;2023-06-26T00:16:02;10.00;;;7.88;;
55350;SDS011;62194;49.480;10.986;2023-06-26T00:16:08;10.03;;;7.60;;
55350;SDS011;62194;49.480;10.986;2023-06-26T00:16:13;10.05;;;7.75;;
55350;SDS011;62194;49.480;10.986;2023-06-26T00:16:19;10.37;;;7.80;;
55350;SDS011;62194;49.480;10.986;2023-06-26T00:16:24;10.33;;;7.60;;
55350;SDS011;62194;49.480;10.986;2023-06-26T00:16:29;10.20;;;7.63;;
55350;SDS011;62194;49.480;10.986;2023-06-26T00:16:36;8.73;;;7.80;;
55350;SDS011;62194;49.480;10.986;2023-06-26T00:16:41;8.50;;;7.60;;
55350;SDS011;62194;49.480;10.986;2023-06-26T00:16:47;8.40;;;7.50;;
55350;SDS011;62194;49.480;10.986;2023-06-26T00:16:56;8.37;;;7.57;;
55350;SDS011;62194;49.480;10.986;2023-06-26T00:17:01;8.30;;;7.50;;
55350;SDS011;62194;49.480;10.986;2023-06-26T00:17:06;8.35;;;7.55;;
55350;SDS011;62194;49.480;10.986;2023-06-26T00:17:11;8.50;;;7.70;;
55350;SDS011;62194;49.480;10.986;2023-06-26T00:17:17;8.70;;;7.80;;
55350;SDS011;62194;49.480;10.986;2023-06-26T00:17:22;8.77;;;7.88;;
55350;SDS011;62194;49.480;10.986;2023-06-26T00:17:28;8.70;;;7.80;;
55350;SDS011;62194;49.480;10.986;2023-06-26T00:17:33;8.83;;;7.93;;
55350;SDS011;62194;49.480;10.986;2023-06-26T00:17:42;8.99;;;7.66;;
55350;SDS011;62194;49.480;10.986;2023-06-26T00:17:50;9.07;;;7.45;;
55350;SDS011;62194;49.480;10.986;2023-06-26T00:17:58;9.06;;;7.58;;
55350;SDS011;62194;49.480;10.986;2023-06-26T00:18:04;9.13;;;7.73;;
55350;SDS011;62194;49.480;10.986;2023-06-26T00:18:09;9.27;;;7.93;;
55350;SDS011;62194;49.480;10.986;2023-06-26T00:18:14;9.47;;;8.07;;
55350;SDS011;62194;49.480;10.986;2023-06-26T00:18:20;9.23;;;8.07;;
55350;SDS011;62194;49.480;10.986;2023-06-26T00:18:28;9.60;;;8.05;;
55350;SDS011;62194;49.480;10.986;2023-06-26T00:18:33;9.82;;;7.95;;
55350;SDS011;62194;49.480;10.986;2023-06-26T00:18:39;9.77;;;8.03;;
55350;SDS011;62194;49.480;10.986;2023-06-26T00:18:44;9.48;;;7.97;;
55350;SDS011;62194;49.480;10.986;2023-06-26T00:18:49;10.07;;;8.10;;
55350;SDS011;62194;49.480;10.986;2023-06-26T00:18:54;9.70;;;8.03;;
55350;SDS011;62194;49.480;10.986;2023-06-26T00:19:00;9.30;;;8.03;;
55350;SDS011;62194;49.480;10.986;2023-06-26T00:19:05;9.23;;;8.18;;
55350;SDS011;62194;49.480;10.986;2023-06-26T00:19:10;9.03;;;8.07;;
55350;SDS011;62194;49.480;10.986;2023-06-26T00:19:16;8.97;;;8.07;;
55350;SDS011;62194;49.480;10.986;2023-06-26T00:19:21;8.95;;;8.05;;
55350;SDS011;62194;49.480;10.986;2023-06-26T00:19:26;8.83;;;7.90;;
55350;SDS011;62194;49.480;10.986;2023-06-26T00:19:32;8.80;;;7.90;;
55350;SDS011;62194;49.480;10.986;2023-06-26T00:19:38;9.10;;;7.85;;
55350;SDS011;62194;49.480;10.986;2023-06-26T00:19:43;9.25;;;8.02;;
55350;SDS011;62194;49.480;10.986;2023-06-26T00:19:48;9.13;;;8.00;;
55350;SDS011;62194;49.480;10.986;2023-06-26T00:19:54;9.10;;;8.15;;
55350;SDS011;62194;49.480;10.986;2023-06-26T00:19:59;9.03;;;8.13;;
55350;SDS011;62194;49.480;10.986;2023-06-26T00:20:05;9.00;;;8.07;;
55350;SDS011;62194;49.480;10.986;2023-06-26T00:20:10;9.20;;;8.03;;
55350;SDS011;62194;49.480;10.986;2023-06-26T00:20:16;9.50;;;7.93;;
55350;SDS011;62194;49.480;10.986;2023-06-26T00:20:23;9.36;;;7.74;;
55350;SDS011;62194;49.480;10.986;2023-06-26T00:20:30;9.57;;;7.90;;
55350;SDS011;62194;49.480;10.986;2023-06-26T00:20:38;9.53;;;7.83;;
55350;SDS011;62194;49.480;10.986;2023-06-26T00:20:44;9.45;;;7.85;;
55350;SDS011;62194;49.480;10.986;2023-06-26T00:20:49;8.90;;;7.70;;
55350;SDS011;62194;49.480;10.986;2023-06-26T00:20:55;9.13;;;7.68;;
55350;SDS011;62194;49.480;10.986;2023-06-26T00:21:00;9.30;;;7.63;;
55350;SDS011;62194;49.480;10.986;2023-06-26T00:21:05;9.20;;;7.53;;
55350;SDS011;62194;49.480;10.986;2023-06-26T00:21:11;9.25;;;7.60;;
55350;SDS011;62194;49.480;10.986;2023-06-26T00:21:16;10.20;;;7.73;;
55350;SDS011;62194;49.480;10.986;2023-06-26T00:21:21;10.50;;;7.90;;
55350;SDS011;62194;49.480;10.986;2023-06-26T00:21:27;10.33;;;7.90;;
55350;SDS011;62194;49.480;10.986;2023-06-26T00:21:32;10.82;;;8.02;;
55350;SDS011;62194;49.480;10.986;2023-06-26T00:21:38;11.18;;;8.07;;
55350;SDS011;62194;49.480;10.986;2023-06-26T00:21:43;10.40;;;7.97;;
55350;SDS011;62194;49.480;10.986;2023-06-26T00:21:51;10.67;;;8.07;;
55350;SDS011;62194;49.480;10.986;2023-06-26T00:21:57;10.70;;;8.25;;
55350;SDS011;62194;49.480;10.986;2023-06-26T00:22:02;10.00;;;8.13;;
55350;SDS011;62194;49.480;10.986;2023-06-26T00:22:07;9.93;;;8.10;;
55350;SDS011;62194;49.480;10.986;2023-06-26T00:22:13;9.45;;;7.93;;
55350;SDS011;62194;49.480;10.986;2023-06-26T00:22:18;9.40;;;8.00;;
55350;SDS011;62194;49.480;10.986;2023-06-26T00:22:26;9.43;;;7.72;;
55350;SDS011;62194;49.480;10.986;2023-06-26T00:22:31;11.37;;;7.57;;
55350;SDS011;62194;49.480;10.986;2023-06-26T00:22:36;11.20;;;7.53;;
55350;SDS011;62194;49.480;10.986;2023-06-26T00:22:46;11.50;;;7.74;;
55350;SDS011;62194;49.480;10.986;2023-06-26T00:22:51;11.90;;;7.83;;
55350;SDS011;62194;49.480;10.986;2023-06-26T00:22:58;10.70;;;7.73;;
55350;SDS011;62194;49.480;10.986;2023-06-26T00:23:03;9.70;;;7.83;;
55350;SDS011;62194;49.480;10.986;2023-06-26T00:23:12;9.80;;;7.77;;
55350;SDS011;62194;49.480;10.986;2023-06-26T00:23:18;8.82;;;7.55;;
55350;SDS011;62194;49.480;10.986;2023-06-26T00:23:23;8.53;;;7.57;;
55350;SDS011;62194;49.480;10.986;2023-06-26T00:23:28;8.75;;;7.85;;
55350;SDS011;62194;49.480;10.986;2023-06-26T00:23:35;8.70;;;7.78;;
55350;SDS011;62194;49.480;10.986;2023-06-26T00:23:41;9.00;;;8.02;;
55350;SDS011;62194;49.480;10.986;2023-06-26T00:23:47;9.70;;;8.17;;
55350;SDS011;62194;49.480;10.986;2023-06-26T00:23:52;9.80;;;8.27;;
55350;SDS011;62194;49.480;10.986;2023-06-26T00:23:57;9.75;;;8.07;;
55350;SDS011;62194;49.480;10.986;2023-06-26T00:24:03;10.00;;;8.10;;
55350;SDS011;62194;49.480;10.986;2023-06-26T00:24:08;10.07;;;8.30;;
55350;SDS011;62194;49.480;10.986;2023-06-26T00:24:14;9.67;;;8.10;;
55350;SDS011;62194;49.480;10.986;2023-06-26T00:24:19;9.22;;;7.88;;
55350;SDS011;62194;49.480;10.986;2023-06-26T00:24:25;9.17;;;7.73;;
55350;SDS011;62194;49.480;10.986;2023-06-26T00:24:30;9.20;;;7.60;;
55350;SDS011;62194;49.480;10.986;2023-06-26T00:24:35;9.20;;;7.60;;
55350;SDS011;62194;49.480;10.986;2023-06-26T00:24:41;9.60;;;7.60;;
55350;SDS011;62194;49.480;10.986;2023-06-26T00:24:46;9.27;;;7.57;;
55350;SDS011;62194;49.480;10.986;2023-06-26T00:24:51;9.20;;;7.63;;
55350;SDS011;62194;49.480;10.986;2023-06-26T00:24:57;9.00;;;7.60;;
55350;SDS011;62194;49.480;10.986;2023-06-26T00:25:02;8.87;;;7.67;;
55350;SDS011;62194;49.480;10.986;2023-06-26T00:25:08;8.57;;;7.53;;
55350;SDS011;62194;49.480;10.986;2023-06-26T00:25:13;8.67;;;7.47;;
55350;SDS011;62194;49.480;10.986;2023-06-26T00:25:18;9.35;;;7.70;;
55350;SDS011;62194;49.480;10.986;2023-06-26T00:25:24;9.35;;;7.80;;
55350;SDS011;62194;49.480;10.986;2023-06-26T00:25:30;10.73;;;7.80;;
55350;SDS011;62194;49.480;10.986;2023-06-26T00:25:35;11.60;;;7.77;;
55350;SDS011;62194;49.480;10.986;2023-06-26T00:25:40;11.63;;;7.80;;
55350;SDS011;62194;49.480;10.986;2023-06-26T00:25:46;12.00;;;7.70;;
55350;SDS011;62194;49.480;10.986;2023-06-26T00:25:51;11.85;;;7.38;;
55350;SDS011;62194;49.480;10.986;2023-06-26T00:25:57;11.57;;;7.30;;
55350;SDS011;62194;49.480;10.986;2023-06-26T00:26:03;9.90;;;7.03;;
55350;SDS011;62194;49.480;10.986;2023-06-26T00:26:09;9.57;;;7.00;;
55350;SDS011;62194;49.480;10.986;2023-06-26T00:26:15;10.23;;;7.35;;
55350;SDS011;62194;49.480;10.986;2023-06-26T00:26:20;10.70;;;7.57;;
55350;SDS011;62194;49.480;10.986;2023-06-26T00:26:25;10.90;;;7.77;;
55350;SDS011;62194;49.480;10.986;2023-06-26T00:26:31;10.63;;;8.13;;
55350;SDS011;62194;49.480;10.986;2023-06-26T00:26:36;10.80;;;8.27;;
55350;SDS011;62194;49.480;10.986;2023-06-26T00:26:41;10.20;;;8.07;;
55350;SDS011;62194;49.480;10.986;2023-06-26T00:26:47;9.03;;;7.80;;
55350;SDS011;62194;49.480;10.986;2023-06-26T00:26:52;9.85;;;7.90;;
55350;SDS011;62194;49.480;10.986;2023-06-26T00:26:58;9.87;;;7.70;;
55350;SDS011;62194;49.480;10.986;2023-06-26T00:27:03;9.82;;;7.50;;
55350;SDS011;62194;49.480;10.986;2023-06-26T00:27:09;9.90;;;7.50;;
55350;SDS011;62194;49.480;10.986;2023-06-26T00:27:14;10.27;;;7.50;;
55350;SDS011;62194;49.480;10.986;2023-06-26T00:27:20;10.10;;;7.37;;
55350;SDS011;62194;49.480;10.986;2023-06-26T00:27:25;10.73;;;7.30;;
55350;SDS011;62194;49.480;10.986;2023-06-26T00:27:30;10.77;;;7.37;;
55350;SDS011;62194;49.480;10.986;2023-06-26T00:27:36;10.73;;;7.37;;
55350;SDS011;62194;49.480;10.986;2023-06-26T00:27:41;10.50;;;7.40;;
55350;SDS011;62194;49.480;10.986;2023-06-26T00:27:46;10.87;;;7.43;;
55350;SDS011;62194;49.480;10.986;2023-06-26T00:27:52;10.13;;;7.63;;
55350;SDS011;62194;49.480;10.986;2023-06-26T00:27:57;9.90;;;7.72;;
55350;SDS011;62194;49.480;10.986;2023-06-26T00:28:02;10.07;;;7.80;;
55350;SDS011;62194;49.480;10.986;2023-06-26T00:28:08;9.90;;;7.77;;
55350;SDS011;62194;49.480;10.986;2023-06-26T00:28:13;10.43;;;7.60;;
55350;SDS011;62194;49.480;10.986;2023-06-26T00:28:18;9.90;;;7.70;;
55350;SDS011;62194;49.480;10.986;2023-06-26T00:28:24;9.50;;;7.60;;
55350;SDS011;62194;49.480;10.986;2023-06-26T00:28:32;9.40;;;7.59;;
55350;SDS011;62194;49.480;10.986;2023-06-26T00:28:38;9.80;;;7.63;;
55350;SDS011;62194;49.480;10.986;2023-06-26T00:28:43;9.48;;;7.85;;
55350;SDS011;62194;49.480;10.986;2023-06-26T00:28:48;9.33;;;7.80;;
55350;SDS011;62194;49.480;10.986;2023-06-26T00:28:54;9.40;;;7.80;;
55350;SDS011;62194;49.480;10.986;2023-06-26T00:28:59;9.27;;;7.72;;
55350;SDS011;62194;49.480;10.986;2023-06-26T00:29:04;8.97;;;7.67;;
55350;SDS011;62194;49.480;10.986;2023-06-26T00:29:09;8.73;;;7.77;;
55350;SDS011;62194;49.480;10.986;2023-06-26T00:29:15;8.60;;;7.70;;
55350;SDS011;62194;49.480;10.986;2023-06-26T00:29:20;8.55;;;7.65;;
55350;SDS011;62194;49.480;10.986;2023-06-26T00:29:26;8.45;;;7.60;;
55350;SDS011;62194;49.480;10.986;2023-06-26T00:29:31;8.37;;;7.57;;
55350;SDS011;62194;49.480;10.986;2023-06-26T00:29:36;8.27;;;7.47;;
55350;SDS011;62194;49.480;10.986;2023-06-26T00:29:43;9.20;;;7.50;;
55350;SDS011;62194;49.480;10.986;2023-06-26T00:29:48;9.20;;;7.50;;
55350;SDS011;62194;49.480;10.986;2023-06-26T00:29:54;9.53;;;7.60;;
55350;SDS011;62194;49.480;10.986;2023-06-26T00:29:59;10.27;;;7.60;;
55350;SDS011;62194;49.480;10.986;2023-06-26T00:30:04;10.93;;;7.50;;
55350;SDS011;62194;49.480;10.986;2023-06-26T00:30:10;9.98;;;7.35;;
55350;SDS011;62194;49.480;10.986;2023-06-26T00:30:16;9.43;;;7.22;;
55350;SDS011;62194;49.480;10.986;2023-06-26T00:30:21;9.80;;;7.30;;
55350;SDS011;62194;49.480;10.986;2023-06-26T00:30:26;9.30;;;7.33;;
55350;SDS011;62194;49.480;10.986;2023-06-26T00:30:31;8.37;;;7.50;;
55350;SDS011;62194;49.480;10.986;2023-06-26T00:30:37;8.60;;;7.68;;
55350;SDS011;62194;49.480;10.986;2023-06-26T00:30:42;8.80;;;7.70;;
55350;SDS011;62194;49.480;10.986;2023-06-26T00:30:48;8.90;;;7.75;;
55350;SDS011;62194;49.480;10.986;2023-06-26T00:30:53;9.10;;;7.70;;
55350;SDS011;62194;49.480;10.986;2023-06-26T00:30:58;9.23;;;7.67;;
55350;SDS011;62194;49.480;10.986;2023-06-26T00:31:03;9.10;;;7.60;;
55350;SDS011;62194;49.480;10.986;2023-06-26T00:31:09;9.43;;;7.75;;
55350;SDS011;62194;49.480;10.986;2023-06-26T00:31:14;9.87;;;7.80;;
55350;SDS011;62194;49.480;10.986;2023-06-26T00:31:19;9.37;;;7.87;;
55350;SDS011;62194;49.480;10.986;2023-06-26T00:31:24;9.90;;;8.00;;
55350;SDS011;62194;49.480;10.986;2023-06-26T00:31:30;10.00;;;8.15;;
55350;SDS011;62194;49.480;10.986;2023-06-26T00:31:35;9.97;;;8.10;;
55350;SDS011;62194;49.480;10.986;2023-06-26T00:31:41;9.82;;;8.13;;
55350;SDS011;62194;49.480;10.986;2023-06-26T00:31:46;10.03;;;8.30;;
55350;SDS011;62194;49.480;10.986;2023-06-26T00:31:52;9.88;;;8.23;;
55350;SDS011;62194;49.480;10.986;2023-06-26T00:31:57;9.50;;;8.10;;
55350;SDS011;62194;49.480;10.986;2023-06-26T00:32:02;9.70;;;7.80;;
55350;SDS011;62194;49.480;10.986;2023-06-26T00:32:08;9.50;;;7.70;;
55350;SDS011;62194;49.480;10.986;2023-06-26T00:32:13;9.17;;;7.50;;
55350;SDS011;62194;49.480;10.986;2023-06-26T00:32:18;8.47;;;7.43;;
55350;SDS011;62194;49.480;10.986;2023-06-26T00:32:23;8.23;;;7.28;;
55350;SDS011;62194;49.480;10.986;2023-06-26T00:32:29;8.43;;;7.50;;
55350;SDS011;62194;49.480;10.986;2023-06-26T00:32:34;8.73;;;7.83;;
55350;SDS011;62194;49.480;10.986;2023-06-26T00:32:39;11.25;;;9.63;;
55350;SDS011;62194;49.480;10.986;2023-06-26T00:32:45;20.20;;;13.93;;
55350;SDS011;62194;49.480;10.986;2023-06-26T00:32:50;25.43;;;16.47;;
55350;SDS011;62194;49.480;10.986;2023-06-26T00:32:59;33.90;;;20.73;;
55350;SDS011;62194;49.480;10.986;2023-06-26T00:33:04;42.27;;;24.50;;
55350;SDS011;62194;49.480;10.986;2023-06-26T00:33:09;46.87;;;26.40;;
55350;SDS011;62194;49.480;10.986;2023-06-26T00:33:14;44.60;;;25.40;;
55350;SDS011;62194;49.480;10.986;2023-06-26T00:33:20;45.73;;;25.53;;
55350;SDS011;62194;49.480;10.986;2023-06-26T00:33:25;42.90;;;24.10;;
55350;SDS011;62194;49.480;10.986;2023-06-26T00:33:31;40.87;;;23.87;;
55350;SDS011;62194;49.480;10.986;2023-06-26T00:33:36;40.97;;;24.53;;
55350;SDS011;62194;49.480;10.986;2023-06-26T00:33:41;40.73;;;25.03;;
55350;SDS011;62194;49.480;10.986;2023-06-26T00:33:46;40.03;;;24.92;;
55350;SDS011;62194;49.480;10.986;2023-06-26T00:33:52;38.93;;;24.83;;
55350;SDS011;62194;49.480;10.986;2023-06-26T00:33:57;39.50;;;25.03;;
55350;SDS011;62194;49.480;10.986;2023-06-26T00:34:02;38.97;;;24.02;;